Time;durP1;ratioP1;P1;durP2;ratioP2;P2;SDS_P1;SDS_P2;PMS_P1;PMS_P2;Temp;Humidity;BMP_temperature;BMP_pressure;BME280_temperature;BME280_humidity;BME280_pressure;Samples;Min_cycle;Max_cycle;Signal;HPM_P1;HPM_P2
2022/01/17 00:00:16;;;;;;;19.53;10.07;;;;;;;-145.06;0.00;60892.56;4857504;28;20048;-85
2022/01/17 00:02:59;;;;;;;16.48;8.65;;;;;;;-145.06;0.00;60892.56;4867923;28;20033;-85
2022/01/17 00:05:38;;;;;;;16.02;8.80;;;;;;;-145.06;0.00;60892.56;4862128;28;20120;-85
2022/01/17 00:08:17;;;;;;;17.50;9.02;;;;;;;-145.06;0.00;60892.56;4853426;28;20025;-85
2022/01/17 00:10:56;;;;;;;16.70;8.85;;;;;;;-145.06;0.00;60892.56;4852686;28;20029;-86
2022/01/17 00:13:35;;;;;;;15.48;8.35;;;;;;;-145.06;0.00;60892.56;4853785;28;20033;-86
2022/01/17 00:16:28;;;;;;;17.07;9.30;;;;;;;-145.06;0.00;60892.56;4853764;28;20038;-85
2022/01/17 00:22:01;;;;;;;16.58;8.60;;;;;;;-145.06;0.00;60892.56;4858940;28;20112;-86
2022/01/17 00:24:41;;;;;;;16.80;9.02;;;;;;;-145.06;0.00;60892.56;4858588;28;20017;-85
2022/01/17 00:27:20;;;;;;;;;;;;;;;-145.06;0.00;60892.56;4847021;28;20038;-86
2022/01/17 00:30:02;;;;;;;16.95;8.48;;;;;;;-145.06;0.00;60892.56;4859814;28;19913;-85
2022/01/17 00:32:42;;;;;;;17.42;9.32;;;;;;;-145.06;0.00;60892.56;4849185;28;20507;-86
2022/01/17 00:35:21;;;;;;;18.30;9.88;;;;;;;-145.06;0.00;60892.56;4856787;28;20029;-86
2022/01/17 00:38:00;;;;;;;16.40;8.33;;;;;;;-145.06;0.00;60892.56;4854679;28;20392;-86
2022/01/17 00:40:41;;;;;;;17.55;8.65;;;;;;;-145.06;0.00;60892.56;4849840;28;20749;-86
2022/01/17 00:43:20;;;;;;;19.42;9.98;;;;;;;-145.06;0.00;60892.56;4852563;28;20029;-86
2022/01/17 00:45:59;;;;;;;16.83;9.33;;;;;;;-145.06;0.00;60892.56;4854711;28;20042;-85
2022/01/17 00:48:38;;;;;;;20.53;10.83;;;;;;;-145.06;0.00;60892.56;4851227;28;20280;-85
2022/01/17 00:51:17;;;;;;;17.70;9.53;;;;;;;-145.06;0.00;60892.56;4852690;28;20029;-86
2022/01/17 00:53:57;;;;;;;;;;;;;;;-145.06;0.00;60892.56;4851401;28;20280;-86
2022/01/17 00:56:35;;;;;;;18.40;9.38;;;;;;;-145.06;0.00;60892.56;4865827;28;20304;-85
2022/01/17 00:59:14;;;;;;;18.13;9.07;;;;;;;-145.06;0.00;60892.56;4856087;28;20120;-86
2022/01/17 01:01:53;;;;;;;13.90;7.90;;;;;;;-145.06;0.00;60892.56;4857704;28;20033;-85
2022/01/17 01:04:32;;;;;;;16.97;9.57;;;;;;;-145.06;0.00;60892.56;4852299;28;20025;-86
2022/01/17 01:07:11;;;;;;;15.20;8.10;;;;;;;-145.06;0.00;60892.56;4852213;28;20280;-85
2022/01/17 01:10:03;;;;;;;17.27;8.70;;;;;;;-145.06;0.00;60892.56;4852822;28;20064;-85
2022/01/17 01:12:45;;;;;;;17.67;9.15;;;;;;;-145.06;0.00;60892.56;4852675;28;20445;-86
2022/01/17 01:21:45;;;;;;;13.70;7.88;;;;;;;-145.06;0.00;60892.56;4854984;28;20368;-86
2022/01/17 01:27:42;;;;;;;17.75;9.45;;;;;;;-145.06;0.00;60892.56;4862421;28;19917;-86
2022/01/17 01:30:24;;;;;;;15.68;8.00;;;;;;;-145.06;0.00;60892.56;4853964;28;20022;-85
2022/01/17 01:33:03;;;;;;;14.68;8.40;;;;;;;-145.06;0.00;60892.56;4856327;28;20037;-84
2022/01/17 01:35:46;;;;;;;13.98;7.85;;;;;;;-145.06;0.00;60892.56;4854943;28;20029;-86
2022/01/17 01:38:25;;;;;;;16.77;8.90;;;;;;;-145.06;0.00;60892.56;4857054;28;20455;-86
2022/01/17 01:41:04;;;;;;;15.60;8.63;;;;;;;5.08;0.00;60892.56;4870390;28;20029;-85
2022/01/17 01:43:43;;;;;;;17.35;9.43;;;;;;;-145.06;0.00;60892.56;4852957;28;20037;-85
2022/01/17 01:46:23;;;;;;;14.23;7.78;;;;;;;-145.06;0.00;60892.56;4850700;28;21277;-85
2022/01/17 01:49:02;;;;;;;;;;;;;;;-145.06;0.00;60892.56;4857515;28;20037;-86
2022/01/17 01:51:42;;;;;;;14.07;7.97;;;;;;;-145.06;0.00;60892.56;4856190;28;19917;-85
2022/01/17 01:54:21;;;;;;;14.63;7.80;;;;;;;-145.06;0.00;60892.56;4864546;28;20034;-85
2022/01/17 01:57:01;;;;;;;13.80;8.20;;;;;;;-145.06;0.00;60892.56;4856232;28;20395;-85
2022/01/17 01:59:40;;;;;;;;;;;;;;;-145.06;0.00;60892.56;4858280;28;20108;-85
2022/01/17 02:02:19;;;;;;;15.67;8.37;;;;;;;-145.06;0.00;60892.56;4863578;28;19920;-84
2022/01/17 02:04:58;;;;;;;16.70;8.73;;;;;;;5.19;0.00;60892.56;4854630;28;20284;-86
2022/01/17 02:07:39;;;;;;;15.55;8.77;;;;;;;5.32;0.00;60892.56;4856313;28;20541;-86
2022/01/17 02:10:18;;;;;;;13.63;7.72;;;;;;;-145.06;0.00;60892.56;4855493;28;20108;-86
2022/01/17 02:12:57;;;;;;;14.90;8.47;;;;;;;-145.06;0.00;60892.56;4855396;28;20483;-86
2022/01/17 02:15:40;;;;;;;13.17;7.70;;;;;;;-145.06;0.00;60892.56;4870311;28;20671;-87
2022/01/17 02:18:28;;;;;;;13.77;8.20;;;;;;;5.25;0.00;60892.56;4855777;28;20029;-86
2022/01/17 02:23:53;;;;;;;11.88;6.40;;;;;;;5.26;0.00;60892.56;4853673;28;20037;-85
2022/01/17 02:26:32;;;;;;;11.23;6.50;;;;;;;5.27;0.00;60892.56;4850016;28;20380;-85
2022/01/17 02:29:12;;;;;;;14.02;7.85;;;;;;;5.28;0.00;60892.56;4856011;28;20396;-85
2022/01/17 02:31:51;;;;;;;13.40;7.68;;;;;;;5.49;0.00;60892.56;4855306;28;20029;-86
2022/01/17 02:34:31;;;;;;;11.57;7.10;;;;;;;10.68;0.00;60892.56;4854199;28;20471;-85
2022/01/17 02:37:10;;;;;;;11.20;6.83;;;;;;;10.68;0.00;60892.56;4858038;28;20033;-85
2022/01/17 02:39:49;;;;;;;13.05;7.95;;;;;;;10.68;0.00;60892.56;4855544;28;20879;-86
2022/01/17 02:42:28;;;;;;;13.02;7.72;;;;;;;-145.06;0.00;60892.56;4862385;28;20026;-86
2022/01/17 02:45:19;;;;;;;14.98;8.85;;;;;;;-145.06;0.00;60892.56;4849326;28;20041;-85
2022/01/17 02:48:00;;;;;;;14.50;8.15;;;;;;;5.37;0.00;60892.56;4856071;28;20037;-86
2022/01/17 02:50:41;;;;;;;15.18;8.90;;;;;;;5.41;0.00;60892.56;4838827;28;20041;-86
2022/01/17 02:53:20;;;;;;;16.75;9.10;;;;;;;10.68;0.00;60892.56;4855713;28;20037;-86
2022/01/17 02:56:08;;;;;;;13.17;8.37;;;;;;;10.68;0.00;60892.56;4857362;28;20487;-85
2022/01/17 02:58:47;;;;;;;16.17;8.93;;;;;;;10.68;0.00;60892.56;4856929;28;20467;-86
2022/01/17 03:01:28;;;;;;;17.52;10.05;;;;;;;10.68;0.00;60892.56;4855253;28;20487;-86
2022/01/17 03:04:06;;;;;;;15.88;9.35;;;;;;;-145.06;0.00;60892.56;4854828;28;20496;-86
2022/01/17 03:06:45;;;;;;;16.75;9.75;;;;;;;-145.06;0.00;60892.56;4855347;28;20636;-86
2022/01/17 03:09:26;;;;;;;16.30;9.10;;;;;;;10.68;0.00;60892.56;4864896;28;20479;-85
2022/01/17 03:12:06;;;;;;;19.40;10.70;;;;;;;10.68;0.00;60892.56;4855763;28;20160;-86
2022/01/17 03:14:44;;;;;;;19.77;10.63;;;;;;;5.44;0.00;60892.56;4859120;28;20523;-86
2022/01/17 03:17:24;;;;;;;16.45;9.32;;;;;;;5.44;0.00;60892.56;4869172;28;20040;-86
2022/01/17 03:20:04;;;;;;;15.50;9.02;;;;;;;187.52;0.00;60892.56;4861423;28;20061;-85
2022/01/17 03:22:44;;;;;;;19.40;10.65;;;;;;;5.45;0.00;60892.56;4859053;28;20030;-86
2022/01/17 03:25:23;;;;;;;18.48;10.00;;;;;;;-145.06;0.00;60892.56;4853745;28;20029;-86
2022/01/17 03:28:03;;;;;;;17.02;10.63;;;;;;;187.52;0.00;60892.56;4855598;28;20033;-86
2022/01/17 03:30:42;;;;;;;14.45;8.90;;;;;;;5.47;0.00;60892.56;4851241;28;20041;-85
2022/01/17 03:33:21;;;;;;;20.58;10.93;;;;;;;5.47;0.00;60892.56;4846399;28;20033;-86
2022/01/17 03:36:00;;;;;;;15.77;8.82;;;;;;;-145.06;0.00;60892.56;4855568;28;20033;-86
2022/01/17 03:38:41;;;;;;;18.95;10.15;;;;;;;5.48;0.00;60892.56;4855749;28;20033;-86
2022/01/17 03:41:20;;;;;;;17.00;9.77;;;;;;;187.52;0.00;60892.56;4862560;28;20033;-85
2022/01/17 03:43:59;;;;;;;19.15;10.82;;;;;;;5.47;0.00;60892.56;4850373;28;20380;-87
2022/01/17 03:46:38;;;;;;;19.73;11.30;;;;;;;-145.06;0.00;60892.56;4857636;28;20033;-86
2022/01/17 03:49:17;;;;;;;20.33;12.15;;;;;;;5.48;0.00;60892.56;4853947;28;20298;-86
2022/01/17 03:51:56;;;;;;;22.63;11.93;;;;;;;8.08;0.00;60892.56;4851772;28;20037;-87
2022/01/17 03:54:35;;;;;;;17.23;10.57;;;;;;;-145.06;0.00;60892.56;4867409;28;20116;-86
2022/01/17 03:57:14;;;;;;;20.27;11.43;;;;;;;8.08;0.00;60892.56;4855128;28;20260;-86
2022/01/17 03:59:53;;;;;;;18.05;11.45;;;;;;;-145.06;0.00;60892.56;4854137;28;20033;-86
2022/01/17 04:02:32;;;;;;;17.30;9.80;;;;;;;-145.06;0.00;60892.56;4853618;28;20029;-85
2022/01/17 04:05:11;;;;;;;16.08;9.20;;;;;;;-145.06;0.00;60892.56;4856618;28;20033;-86
2022/01/17 04:07:50;;;;;;;18.57;10.60;;;;;;;-145.06;0.00;60892.56;4869023;28;20380;-85
2022/01/17 04:10:29;;;;;;;23.98;13.07;;;;;;;-145.06;0.00;60892.56;4863909;28;20029;-86
2022/01/17 04:13:10;;;;;;;25.33;13.15;;;;;;;-145.06;0.00;60892.56;4855244;28;20069;-85
2022/01/17 04:15:49;;;;;;;17.98;10.45;;;;;;;-145.06;0.00;60892.56;4853376;28;20116;-86
2022/01/17 04:18:29;;;;;;;18.60;10.43;;;;;;;8.08;0.00;60892.56;4867965;28;20029;-85
2022/01/17 04:21:08;;;;;;;18.55;10.88;;;;;;;-145.06;0.00;60892.56;4863272;28;20116;-86
2022/01/17 04:23:47;;;;;;;20.07;11.57;;;;;;;-145.06;0.00;60892.56;4853084;28;20025;-86
2022/01/17 04:26:26;;;;;;;22.43;11.60;;;;;;;-145.06;0.00;60892.56;4853609;28;20483;-86
2022/01/17 04:29:05;;;;;;;20.05;11.98;;;;;;;-145.06;0.00;60892.56;4869256;28;20272;-85
2022/01/17 04:31:44;;;;;;;22.07;11.80;;;;;;;-145.06;0.00;60892.56;4859705;28;20041;-85
2022/01/17 04:34:23;;;;;;;24.10;12.43;;;;;;;-145.06;0.00;60892.56;4850585;28;20347;-85
2022/01/17 04:37:02;;;;;;;21.30;12.25;;;;;;;-145.06;0.00;60892.56;4859135;28;20375;-85
2022/01/17 04:39:41;;;;;;;21.77;12.43;;;;;;;-145.06;0.00;60892.56;4857476;28;20037;-86
2022/01/17 04:42:27;;;;;;;23.25;12.50;;;;;;;-145.06;0.00;60892.56;4863444;28;20037;-87
2022/01/17 04:45:07;;;;;;;23.60;12.70;;;;;;;-145.06;0.00;60892.56;4871135;28;20034;-87
2022/01/17 04:47:49;;;;;;;26.27;13.15;;;;;;;-145.06;0.00;60892.56;4853718;28;20041;-86
2022/01/17 04:50:28;;;;;;;21.98;12.48;;;;;;;-145.06;0.00;60892.56;4851118;28;20033;-86
2022/01/17 04:53:08;;;;;;;24.52;13.13;;;;;;;-145.06;0.00;60892.56;4853432;28;20026;-86
2022/01/17 04:55:48;;;;;;;;;;;;;;;-145.06;0.00;60892.56;4856355;28;20108;-85
2022/01/17 04:58:27;;;;;;;22.52;12.77;;;;;;;-145.06;0.00;60892.56;4859450;28;19913;-86
2022/01/17 05:01:06;;;;;;;22.67;12.77;;;;;;;-145.06;0.00;60892.56;4860327;28;20041;-86
2022/01/17 05:03:45;;;;;;;22.20;12.57;;;;;;;-145.06;0.00;60892.56;4852280;28;20037;-86
2022/01/17 05:06:24;;;;;;;20.52;11.13;;;;;;;-145.06;0.00;60892.56;4858329;28;20057;-85
2022/01/17 05:09:04;;;;;;;17.70;10.33;;;;;;;-145.06;0.00;60892.56;4855231;28;20057;-86
2022/01/17 05:11:43;;;;;;;18.13;10.13;;;;;;;-145.06;0.00;60892.56;4855159;28;20037;-87
2022/01/17 05:14:22;;;;;;;23.77;12.00;;;;;;;-145.06;0.00;60892.56;4855899;28;20056;-86
2022/01/17 05:17:10;;;;;;;21.30;12.48;;;;;;;-145.06;0.00;60892.56;4867356;28;20037;-85
2022/01/17 05:19:52;;;;;;;20.60;11.90;;;;;;;-145.06;0.00;60892.56;4861877;28;20148;-87
2022/01/17 05:22:33;;;;;;;21.80;11.23;;;;;;;-145.06;0.00;60892.56;4858730;28;20566;-85
2022/01/17 05:25:12;;;;;;;20.95;11.70;;;;;;;-145.06;0.00;60892.56;4855867;28;20057;-87
2022/01/17 05:27:51;;;;;;;21.33;11.90;;;;;;;-145.06;0.00;60892.56;4857136;28;20041;-86
2022/01/17 05:30:31;;;;;;;21.85;11.55;;;;;;;-145.06;0.00;60892.56;4860274;28;20053;-86
2022/01/17 05:33:10;;;;;;;24.83;11.88;;;;;;;-145.06;0.00;60892.56;4856636;28;20045;-86
2022/01/17 05:35:49;;;;;;;21.88;11.55;;;;;;;-145.06;0.00;60892.56;4851421;28;20673;-86
2022/01/17 05:38:28;;;;;;;20.13;11.50;;;;;;;-145.06;0.00;60892.56;4875205;28;20480;-85
2022/01/17 05:41:07;;;;;;;20.77;11.38;;;;;;;-145.06;0.00;60892.56;4853079;28;20108;-86
2022/01/17 05:43:46;;;;;;;23.52;13.23;;;;;;;-145.06;0.00;60892.56;4849409;28;20037;-86
2022/01/17 05:46:25;;;;;;;22.85;12.27;;;;;;;-145.06;0.00;60892.56;4856096;28;20029;-86
2022/01/17 05:49:04;;;;;;;22.40;12.67;;;;;;;-145.06;0.00;60892.56;4855465;28;20487;-87
2022/01/17 05:51:43;;;;;;;22.17;12.63;;;;;;;-145.06;0.00;60892.56;4852205;28;20272;-86
2022/01/17 05:54:22;;;;;;;23.73;12.80;;;;;;;-145.06;0.00;60892.56;4852119;28;20025;-86
2022/01/17 05:57:01;;;;;;;24.25;13.70;;;;;;;-145.06;0.00;60892.56;4852738;28;20029;-87
2022/01/17 05:59:40;;;;;;;26.42;14.57;;;;;;;-145.06;0.00;60892.56;4853358;28;20069;-86
2022/01/17 06:02:19;;;;;;;24.90;13.87;;;;;;;-145.06;0.00;60892.56;4855192;28;20612;-86
2022/01/17 06:04:59;;;;;;;25.27;13.27;;;;;;;-145.06;0.00;60892.56;4853594;28;20627;-86
2022/01/17 06:07:37;;;;;;;21.50;13.10;;;;;;;-145.06;0.00;60892.56;4853616;28;20069;-86
2022/01/17 06:10:17;;;;;;;21.67;12.63;;;;;;;-145.06;0.00;60892.56;4852242;28;20033;-85
2022/01/17 06:12:56;;;;;;;22.70;12.60;;;;;;;-145.06;0.00;60892.56;4848794;28;20037;-87
2022/01/17 06:15:35;;;;;;;20.55;10.70;;;;;;;-145.06;0.00;60892.56;4853303;28;20060;-86
2022/01/17 06:18:14;;;;;;;22.60;11.97;;;;;;;-145.06;0.00;60892.56;4857554;28;20061;-87
2022/01/17 06:20:53;;;;;;;21.40;12.27;;;;;;;-145.06;0.00;60892.56;4853887;28;20307;-86
2022/01/17 06:23:32;;;;;;;20.07;11.53;;;;;;;-145.06;0.00;60892.56;4856488;28;20029;-86
2022/01/17 06:26:11;;;;;;;23.93;13.40;;;;;;;-145.06;0.00;60892.56;4854655;28;20446;-86
2022/01/17 06:28:50;;;;;;;22.70;13.27;;;;;;;-145.06;0.00;60892.56;4855692;28;20288;-87
2022/01/17 06:31:29;;;;;;;22.75;12.38;;;;;;;-145.06;0.00;60892.56;4851651;28;20037;-85
2022/01/17 06:34:10;;;;;;;24.08;13.18;;;;;;;-145.06;0.00;60892.56;4854090;28;20392;-86
2022/01/17 06:36:49;;;;;;;24.25;13.60;;;;;;;-145.06;0.00;60892.56;4849128;28;20033;-87
2022/01/17 06:39:28;;;;;;;25.73;13.20;;;;;;;-145.06;0.00;60892.56;4856871;28;20025;-85
2022/01/17 06:42:07;;;;;;;21.17;11.40;;;;;;;-145.06;0.00;60892.56;4869543;28;20391;-86
2022/01/17 06:44:47;;;;;;;24.65;13.20;;;;;;;-145.06;0.00;60892.56;4861850;28;20068;-87
2022/01/17 06:47:26;;;;;;;30.40;15.60;;;;;;;-145.06;0.00;60892.56;4853350;28;20033;-86
2022/01/17 06:50:08;;;;;;;25.73;13.88;;;;;;;-145.06;0.00;60892.56;4858799;28;20041;-87
2022/01/17 06:52:47;;;;;;;21.67;12.38;;;;;;;-145.06;0.00;60892.56;4851284;28;20116;-87
2022/01/17 06:55:34;;;;;;;22.85;12.75;;;;;;;-145.06;0.00;60892.56;4853221;28;20029;-85
2022/01/17 06:58:13;;;;;;;24.35;13.15;;;;;;;-145.06;0.00;60892.56;4855489;28;20041;-87
2022/01/17 07:00:53;;;;;;;25.20;13.25;;;;;;;-145.06;0.00;60892.56;4855721;28;20041;-86
2022/01/17 07:03:32;;;;;;;24.42;12.73;;;;;;;-145.06;0.00;60892.56;4854543;28;20037;-88
2022/01/17 07:06:11;;;;;;;23.35;12.70;;;;;;;-145.06;0.00;60892.56;4868036;28;20033;-87
2022/01/17 07:08:50;;;;;;;22.93;11.67;;;;;;;-145.06;0.00;60892.56;4854892;28;20037;-86
2022/01/17 07:11:29;;;;;;;21.63;11.98;;;;;;;-145.06;0.00;60892.56;4867226;28;20272;-87
2022/01/17 07:14:09;;;;;;;21.00;11.50;;;;;;;-145.06;0.00;60892.56;4846362;28;20025;-87
2022/01/17 07:16:48;;;;;;;18.13;10.18;;;;;;;-145.06;0.00;60892.56;4855425;28;20037;-87
2022/01/17 07:19:27;;;;;;;19.37;9.80;;;;;;;-145.06;0.00;60892.56;4854476;28;20033;-88
2022/01/17 07:22:07;;;;;;;22.53;12.07;;;;;;;-145.06;0.00;60892.56;4853549;28;20034;-86
2022/01/17 07:24:47;;;;;;;;;;;;;;;-145.06;0.00;60892.56;4852523;28;20543;-86
2022/01/17 07:27:26;;;;;;;;;;;;;;;-145.06;0.00;60892.56;4860886;28;20264;-86
2022/01/17 07:30:07;;;;;;;22.30;12.03;;;;;;;-145.06;0.00;60892.56;4850327;28;20422;-86
2022/01/17 07:32:46;;;;;;;19.65;10.20;;;;;;;-145.06;0.00;60892.56;4849302;28;20065;-87
2022/01/17 07:35:25;;;;;;;20.58;10.73;;;;;;;-145.06;0.00;60892.56;4850434;28;20068;-86
2022/01/17 07:38:05;;;;;;;18.90;10.80;;;;;;;-145.06;0.00;60892.56;4854798;28;20376;-86
2022/01/17 07:40:44;;;;;;;19.77;10.30;;;;;;;-145.06;0.00;60892.56;4854932;28;20053;-88
2022/01/17 07:43:23;;;;;;;19.70;10.23;;;;;;;-145.06;0.00;60892.56;4868782;28;20387;-86
2022/01/17 07:46:07;;;;;;;18.27;10.02;;;;;;;-145.06;0.00;60892.56;4854896;28;20124;-88
2022/01/17 07:51:45;;;;;;;19.67;10.60;;;;;;;-145.06;0.00;60892.56;4855768;28;20025;-87
2022/01/17 07:54:31;;;;;;;19.08;10.35;;;;;;;-145.06;0.00;60892.56;4853184;28;20030;-87
2022/01/17 07:57:13;;;;;;;18.73;10.07;;;;;;;-145.06;0.00;60892.56;4854740;28;20037;-87
2022/01/17 07:59:52;;;;;;;19.20;10.77;;;;;;;-145.06;0.00;60892.56;4865976;28;20037;-87
2022/01/17 08:02:32;;;;;;;20.27;10.53;;;;;;;-145.06;0.00;60892.56;4848710;28;20531;-86
2022/01/17 08:05:14;;;;;;;21.67;12.10;;;;;;;-145.06;0.00;60892.56;4852673;28;20124;-86
2022/01/17 08:07:53;;;;;;;25.08;13.25;;;;;;;-145.06;0.00;60892.56;4848464;28;20120;-87
2022/01/17 08:10:33;;;;;;;27.07;13.33;;;;;;;-145.06;0.00;60892.56;4846927;28;20084;-87
2022/01/17 08:13:12;;;;;;;;;;;;;;;-145.06;0.00;60892.56;4844706;28;20372;-86
2022/01/17 08:15:51;;;;;;;27.75;14.48;;;;;;;-145.06;0.00;60892.56;4861145;28;20950;-85
2022/01/17 08:18:31;;;;;;;23.77;13.00;;;;;;;-145.06;0.00;60892.56;4848845;28;20045;-85
2022/01/17 08:21:10;;;;;;;24.13;13.13;;;;;;;-145.06;0.00;60892.56;4859876;28;20033;-86
2022/01/17 08:23:50;;;;;;;23.53;12.73;;;;;;;-145.06;0.00;60892.56;4844548;28;20041;-88
2022/01/17 08:26:29;;;;;;;25.30;12.90;;;;;;;-145.06;0.00;60892.56;4859929;28;20037;-87
2022/01/17 08:29:09;;;;;;;26.27;13.20;;;;;;;-145.06;0.00;60892.56;4848207;28;20479;-86
2022/01/17 08:31:49;;;;;;;25.58;14.30;;;;;;;-145.06;0.00;60892.56;4850791;28;20029;-88
2022/01/17 08:34:28;;;;;;;28.07;15.93;;;;;;;-145.06;0.00;60892.56;4844406;28;20045;-87
2022/01/17 08:37:06;;;;;;;33.53;16.93;;;;;;;-145.06;0.00;60892.56;4848847;28;20551;-87
2022/01/17 08:39:45;;;;;;;28.50;15.55;;;;;;;-145.06;0.00;60892.56;4860567;28;20034;-87
2022/01/17 08:42:25;;;;;;;27.77;15.80;;;;;;;-145.06;0.00;60892.56;4861452;28;20427;-87
2022/01/17 08:45:15;;;;;;;30.63;15.93;;;;;;;-145.06;0.00;60892.56;4852831;28;20037;-87
2022/01/17 08:47:54;;;;;;;23.05;13.48;;;;;;;-145.06;0.00;60892.56;4852631;28;20444;-88
2022/01/17 08:50:33;;;;;;;24.05;13.77;;;;;;;-145.06;0.00;60892.56;4860899;28;20041;-87
2022/01/17 08:53:13;;;;;;;27.20;15.43;;;;;;;-145.06;0.00;60892.56;4850022;28;20684;-87
2022/01/17 08:55:52;;;;;;;29.13;15.38;;;;;;;-145.06;0.00;60892.56;4860421;28;20784;-87
2022/01/17 08:58:31;;;;;;;22.95;13.48;;;;;;;-145.06;0.00;60892.56;4849740;28;20049;-87
2022/01/17 09:01:13;;;;;;;26.98;13.80;;;;;;;-145.06;0.00;60892.56;4844850;28;20033;-87
2022/01/17 09:03:53;;;;;;;29.33;15.10;;;;;;;-145.06;0.00;60892.56;4850158;28;20041;-88
2022/01/17 09:06:32;;;;;;;28.90;14.93;;;;;;;-145.06;0.00;60892.56;4849701;28;20037;-87
2022/01/17 09:09:11;;;;;;;31.27;16.67;;;;;;;-145.06;0.00;60892.56;4847060;28;20038;-87
2022/01/17 09:11:50;;;;;;;25.23;13.13;;;;;;;6.46;0.00;60892.56;4862706;28;20033;-87
2022/01/17 09:14:29;;;;;;;24.58;13.80;;;;;;;-145.06;0.00;60892.56;4846601;28;20451;-87
2022/01/17 09:17:09;;;;;;;25.35;13.57;;;;;;;-145.06;0.00;60892.56;4844401;28;20538;-87
2022/01/17 09:19:50;;;;;;;;;;;;;;;-145.06;0.00;60892.56;4848268;28;20033;-87
2022/01/17 09:22:29;;;;;;;19.45;11.40;;;;;;;-145.06;0.00;60892.56;4849555;28;19921;-87
2022/01/17 09:25:09;;;;;;;22.75;11.55;;;;;;;-145.06;0.00;60892.56;4846957;28;20434;-87
2022/01/17 09:27:48;;;;;;;18.25;10.10;;;;;;;-145.06;0.00;60892.56;4848767;28;20037;-88
2022/01/17 09:30:27;;;;;;;23.93;11.57;;;;;;;6.46;0.00;60892.56;4849742;28;20037;-88
2022/01/17 09:33:06;;;;;;;23.25;11.75;;;;;;;-145.06;0.00;60892.56;4847576;28;20041;-88
2022/01/17 09:35:45;;;;;;;24.65;12.70;;;;;;;-145.06;0.00;60892.56;4848765;28;20029;-89
2022/01/17 09:38:24;;;;;;;25.00;12.93;;;;;;;-145.06;0.00;60892.56;4844886;28;20073;-88
2022/01/17 09:41:04;;;;;;;27.13;14.43;;;;;;;-145.06;0.00;60892.56;4848172;28;20550;-87
2022/01/17 09:43:43;;;;;;;25.50;14.20;;;;;;;-145.06;0.00;60892.56;4862098;28;20034;-89
2022/01/17 09:46:26;;;;;;;23.45;12.90;;;;;;;-145.06;0.00;60892.56;4865904;28;20025;-88
2022/01/17 09:54:36;;;;;;;27.88;14.77;;;;;;;8.08;0.00;60892.56;4852641;28;20499;-87
2022/01/17 09:57:16;;;;;;;21.60;11.88;;;;;;;6.49;0.00;60892.56;4866024;28;20033;-88
2022/01/17 09:59:57;;;;;;;;;;;;;;;8.08;0.00;60892.56;4853807;28;20495;-88
2022/01/17 10:02:36;;;;;;;23.27;12.50;;;;;;;-145.06;0.00;60892.56;4857186;28;19917;-87
2022/01/17 10:05:15;;;;;;;27.80;15.13;;;;;;;6.62;0.00;60892.56;4875695;28;20049;-87
2022/01/17 10:07:54;;;;;;;23.55;13.20;;;;;;;6.79;0.00;60892.56;4859910;28;20073;-89
2022/01/17 10:10:33;;;;;;;19.07;12.03;;;;;;;6.79;0.00;60892.56;4851110;28;20380;-88
2022/01/17 10:13:18;;;;;;;22.23;12.15;;;;;;;6.70;0.00;60892.56;4848395;28;20691;-87
2022/01/17 10:16:08;;;;;;;21.27;12.55;;;;;;;10.68;0.00;60892.56;4853386;28;20432;-89
2022/01/17 10:19:00;;;;;;;19.27;11.50;;;;;;;-145.06;0.00;60892.56;4852547;28;20041;-88
2022/01/17 10:21:48;;;;;;;23.00;12.63;;;;;;;-145.06;0.00;60892.56;4851815;28;20029;-88
2022/01/17 10:35:37;;;;;;;20.17;11.32;;;;;;;-145.06;0.00;60892.56;4849002;28;20096;-89
2022/01/17 10:38:22;;;;;;;21.00;11.90;;;;;;;8.08;0.00;60892.56;4852595;28;20077;-89
2022/01/17 10:41:02;;;;;;;18.77;11.77;;;;;;;-145.06;0.00;60892.56;4859831;28;20376;-88
2022/01/17 10:43:45;;;;;;;20.10;11.98;;;;;;;-145.06;0.00;60892.56;4849934;28;20033;-88
2022/01/17 10:46:24;;;;;;;22.85;12.27;;;;;;;-145.06;0.00;60892.56;4847126;28;20034;-86
2022/01/17 10:49:03;;;;;;;18.83;10.93;;;;;;;-145.06;0.00;60892.56;4847769;28;20037;-88
2022/01/17 10:51:42;;;;;;;17.85;10.18;;;;;;;-145.06;0.00;60892.56;4849694;28;20377;-88
2022/01/17 10:54:21;;;;;;;20.50;11.30;;;;;;;-145.06;0.00;60892.56;4848355;28;20759;-88
2022/01/17 10:57:04;;;;;;;17.37;10.40;;;;;;;-145.06;0.00;60892.56;4849417;28;20037;-89
2022/01/17 10:59:43;;;;;;;19.67;11.20;;;;;;;-145.06;0.00;60892.56;4851537;28;20475;-88
2022/01/17 11:02:25;;;;;;;24.57;12.77;;;;;;;-145.06;0.00;60892.56;4850263;28;20045;-88
2022/01/17 11:05:07;;;;;;;17.15;10.40;;;;;;;-145.06;0.00;60892.56;4846611;28;20045;-88
2022/01/17 11:07:48;;;;;;;23.40;12.82;;;;;;;-145.06;0.00;60892.56;4858069;28;20041;-88
2022/01/17 11:10:29;;;;;;;17.85;11.27;;;;;;;-145.06;0.00;60892.56;4862707;28;20037;-88
2022/01/17 11:13:11;;;;;;;17.42;10.45;;;;;;;-145.06;0.00;60892.56;4845372;28;20033;-89
2022/01/17 11:15:56;;;;;;;17.80;10.68;;;;;;;8.08;0.00;60892.56;4864433;28;20112;-88
2022/01/17 11:18:36;;;;;;;18.15;10.57;;;;;;;-145.06;0.00;60892.56;4851099;28;20375;-88
2022/01/17 11:21:17;;;;;;;;;;;;;;;-145.06;0.00;60892.56;4861978;28;20049;-88
2022/01/17 11:23:56;;;;;;;16.15;9.77;;;;;;;-145.06;0.00;60892.56;4848779;28;19917;-89
2022/01/17 11:26:36;;;;;;;19.17;11.32;;;;;;;-145.06;0.00;60892.56;4850295;28;20037;-89
2022/01/17 11:29:16;;;;;;;22.13;11.63;;;;;;;-145.06;0.00;60892.56;4849850;28;20037;-88
2022/01/17 11:31:55;;;;;;;18.40;10.48;;;;;;;-145.06;0.00;60892.56;4853682;28;20041;-88
2022/01/17 11:34:34;;;;;;;16.00;9.47;;;;;;;-145.06;0.00;60892.56;4849763;28;20033;-89
2022/01/17 11:37:13;;;;;;;12.73;8.30;;;;;;;7.76;0.00;60892.56;4850276;28;20037;-88
2022/01/17 11:39:56;;;;;;;13.87;8.07;;;;;;;-145.06;0.00;60892.56;4849071;28;20045;-88
2022/01/17 11:42:43;;;;;;;17.30;9.57;;;;;;;-145.06;0.00;60892.56;4848224;28;20761;-88
2022/01/17 11:45:21;;;;;;;16.08;8.75;;;;;;;7.67;0.00;60892.56;4852634;28;20041;-88
2022/01/17 11:48:05;;;;;;;16.27;9.43;;;;;;;-145.06;0.00;60892.56;4863890;28;20041;-89
2022/01/17 11:50:47;;;;;;;22.27;12.15;;;;;;;-145.06;0.00;60892.56;4860321;28;21009;-89
2022/01/17 11:53:27;;;;;;;18.83;11.52;;;;;;;-145.06;0.00;60892.56;4849093;28;20056;-88
2022/01/17 11:56:07;;;;;;;;;;;;;;;-145.06;0.00;60892.56;4849045;28;20606;-88
2022/01/17 11:58:46;;;;;;;17.80;10.90;;;;;;;-145.06;0.00;60892.56;4847717;28;19913;-88
2022/01/17 12:01:26;;;;;;;15.82;9.15;;;;;;;-145.06;0.00;60892.56;4863477;28;20037;-88
2022/01/17 12:04:05;;;;;;;18.92;11.60;;;;;;;-145.06;0.00;60892.56;4848738;28;20041;-89
2022/01/17 12:06:43;;;;;;;19.17;11.52;;;;;;;-145.06;0.00;60892.56;4865955;28;20037;-89
2022/01/17 12:09:25;;;;;;;19.77;12.23;;;;;;;-145.06;0.00;60892.56;4849156;28;20037;-89
2022/01/17 12:12:07;;;;;;;18.17;10.70;;;;;;;-145.06;0.00;60892.56;4845025;28;20120;-87
2022/01/17 12:15:04;;;;;;;20.75;11.20;;;;;;;-145.06;0.00;60892.56;4857975;28;20025;-89
2022/01/17 12:17:44;;;;;;;15.15;9.23;;;;;;;-145.06;0.00;60892.56;4859322;28;20843;-88
2022/01/17 12:20:24;;;;;;;16.75;9.32;;;;;;;-145.06;0.00;60892.56;4848267;28;20100;-90
2022/01/17 12:23:23;;;;;;;15.40;8.88;;;;;;;-145.06;0.00;60892.56;4860301;28;20037;-89
2022/01/17 12:26:26;;;;;;;18.33;11.33;;;;;;;-145.06;0.00;60892.56;4861054;28;20041;-89
2022/01/17 12:29:05;;;;;;;24.95;12.60;;;;;;;8.08;0.00;60892.56;4844834;28;20037;-89
2022/01/17 12:31:47;;;;;;;18.00;10.38;;;;;;;-145.06;0.00;60892.56;4846023;28;20029;-88
2022/01/17 12:34:26;;;;;;;20.13;11.73;;;;;;;-145.06;0.00;60892.56;4847123;28;20037;-88
2022/01/17 12:37:31;;;;;;;21.00;12.07;;;;;;;-145.06;0.00;60892.56;4851064;28;20535;-89
2022/01/17 12:40:32;;;;;;;21.75;12.38;;;;;;;-145.06;0.00;60892.56;4858940;28;20037;-87
2022/01/17 12:43:14;;;;;;;17.45;11.27;;;;;;;-145.06;0.00;60892.56;4855305;28;20116;-88
2022/01/17 12:46:02;;;;;;;17.02;11.20;;;;;;;-145.06;0.00;60892.56;4850969;28;20037;-89
2022/01/17 12:48:41;;;;;;;18.40;9.70;;;;;;;-145.06;0.00;60892.56;4847332;28;20037;-89
2022/01/17 12:51:20;;;;;;;16.07;9.40;;;;;;;-145.06;0.00;60892.56;4850969;28;20038;-89
2022/01/17 12:53:59;;;;;;;17.07;10.43;;;;;;;-145.06;0.00;60892.56;4846443;28;20280;-89